Terminal Aerodrome Forecast
Issued by NWS

Current Version | Previous Version | Graphics & Text | Print | Product List | Glossary On
Versions: 1 2 3 4 5 6 7 8 9 10 11 12 13 14 15
000
FTUS41 KPBZ 211700
TAFHLG
TAF
KHLG 211735Z 2118/2218 32008KT P6SM BKN035
     FM212100 24006KT P6SM SCT040
     FM221400 20005KT P6SM OVC100=

USA.gov is the U.S. government's official web portal to all federal, state and local government web resources and services.